Latest Coastal Weather Observations for Frederick Reef

IDQ60701

Issued at 6:55 am EST Tuesday 2 September 2014 (issued every 10 minutes, with the page automatically refreshed every 10 minutes)

About coastal observations | Map of coastal stations | Coastal observations for QLD | Marine services | Other Formats
Station Details ID: 200701 Name: FREDERICK REEF Lat: -20.94 Lon: 154.40 Height: 4.9 m
Data from the previous 72 hours. | See also: Recent months for locations in Queensland
Date/Time
EST
Temp

°C
Wind Pressure Rain
since 9am
mm
Weather Cloud Vis
km
Sea
Height
m
Swell
Dir
 
Speed
knots
Gust
knots
hPa Trend Height
m
Period
s
Dir
02/06:30am 21.8 SE 2 6 1017.3 - - - - - - - - -
02/06:00am 21.3 SE 8 11 1017.1 - - - - - - - - -
02/05:30am 21.0 SE 10 12 1016.8 - - - - - - - - -
02/05:00am 20.9 ESE 1 3 1016.5 - - - - - - - - -
02/04:30am 21.1 CALM 0 3 1016.5 - - - - - - - - -
02/04:00am 21.2 ESE 1 3 1016.4 - - - - - - - - -
02/03:30am 21.9 ENE 1 3 1016.2 - - - - - - - - -
02/03:00am 21.8 E 1 3 1016.3 - - - - - - - - -
02/02:30am 21.9 E 1 2 1016.0 - - - - - - - - -
02/02:00am 21.6 E 1 3 1016.2 - - - - - - - - -
02/01:30am 21.5 CALM 0 7 1016.7 - - - - - - - - -
02/01:00am 21.0 ESE 1 3 1016.9 - - - - - - - - -
02/12:30am 20.8 E 1 3 1017.1 - - - - - - - - -
02/12:00am 21.9 E 1 3 1017.1 - - - - - - - - -
 
Date/Time
EST
Temp

°C
Wind Pressure Rain
since 9am
mm
Weather Cloud Vis
km
Sea
Height
m
Swell
Dir
 
Speed
knots
Gust
knots
hPa Trend Height
m
Period
s
Dir
01/11:30pm 22.1 E 1 3 1017.4 - - - - - - - - -
01/11:00pm 22.0 ESE 1 3 1017.6 - - - - - - - - -
01/10:30pm 22.1 ESE 1 3 1017.6 - - - - - - - - -
01/10:00pm 22.1 ESE 1 3 1017.8 - - - - - - - - -
01/09:30pm 22.3 ESE 1 3 1017.9 - - - - - - - - -
01/09:00pm 22.3 ESE 1 3 1017.7 - - - - - - - - -
01/08:30pm 22.3 E 1 4 1017.8 - - - - - - - - -
01/08:00pm 22.2 ESE 1 3 1017.8 - - - - - - - - -
01/07:30pm 22.0 ESE 1 3 1017.7 - - - - - - - - -
01/07:00pm 22.1 ESE 1 3 1017.6 - - - - - - - - -
01/06:30pm 22.0 ESE 1 4 1017.2 - - - - - - - - -
01/06:00pm 22.2 ESE 1 15 1017.2 - - - - - - - - -
01/05:30pm 22.3 ESE 14 16 1016.5 - - - - - - - - -
01/05:00pm 22.2 ESE 12 14 1016.5 - - - - - - - - -
01/04:30pm 22.5 ESE 12 15 1016.5 - - - - - - - - -
01/04:00pm 22.0 SE 11 13 1016.6 - - - - - - - - -
01/03:30pm 22.3 ESE 9 11 1016.4 - - - - - - - - -
01/03:00pm 22.1 ESE 11 14 1015.9 - - - - - - - - -
01/02:30pm 22.1 ESE 12 14 1015.5 - - - - - - - - -
01/02:00pm 22.1 E 12 14 1015.5 - - - - - - - - -
01/01:30pm 21.9 E 12 14 1016.3 - - - - - - - - -
01/01:00pm 22.1 ESE 11 13 1016.9 - - - - - - - - -
01/12:30pm 21.9 ESE 11 13 1017.6 - - - - - - - - -
01/12:00pm 22.0 ESE 10 13 1017.8 - - - - - - - - -
01/11:30am 21.9 ESE 10 13 1018.1 - - - - - - - - -
01/11:00am 21.8 ESE 11 13 1018.1 - - - - - - - - -
01/10:30am 21.8 ESE 11 13 1018.5 - - - - - - - - -
01/10:00am 21.8 ESE 10 14 1018.8 - - - - - - - - -
01/09:30am 21.8 E 10 12 1018.9 - - - - - - - - -
01/09:00am 22.0 E 10 13 1018.9 - - - - - - - - -
01/08:30am 21.8 E 10 12 1019.0 - - - - - - - - -
01/08:00am 21.6 ESE 11 13 1018.7 - - - - - - - - -
01/07:30am 21.6 ESE 11 13 1018.5 - - - - - - - - -
01/07:00am 21.5 ESE 11 13 1018.1 - - - - - - - - -
01/06:30am 21.5 ESE 11 13 1017.9 - - - - - - - - -
01/06:00am 21.3 ESE 10 13 1017.6 - - - - - - - - -
01/05:30am 21.1 ESE 10 13 1017.4 - - - - - - - - -
01/05:00am 21.1 ESE 1 5 1017.0 - - - - - - - - -
01/04:30am 21.1 CALM 0 2 1016.7 - - - - - - - - -
01/04:00am 21.2 ESE 1 3 1016.4 - - - - - - - - -
01/03:30am 21.1 SE 1 3 1016.5 - - - - - - - - -
01/03:00am 21.1 SE 1 3 1016.2 - - - - - - - - -
01/02:30am 21.3 SE 1 6 1016.3 - - - - - - - - -
01/02:00am 21.1 SE 1 3 1016.5 - - - - - - - - -
01/01:30am 21.2 SE 1 4 1016.7 - - - - - - - - -
01/01:00am 21.4 SE 1 3 1017.0 - - - - - - - - -
01/12:30am 21.3 ESE 1 3 1017.0 - - - - - - - - -
01/12:00am 21.3 SE 1 4 1017.1 - - - - - - - - -
 
Date/Time
EST
Temp

°C
Wind Pressure Rain
since 9am
mm
Weather Cloud Vis
km
Sea
Height
m
Swell
Dir
 
Speed
knots
Gust
knots
hPa Trend Height
m
Period
s
Dir
31/11:30pm 21.3 SE 1 3 1017.3 - - - - - - - - -
31/11:00pm 21.6 SE 1 2 1017.5 - - - - - - - - -
31/10:30pm 21.4 CALM 0 2 1017.8 - - - - - - - - -
31/10:00pm 21.4 SE 1 3 1017.7 - - - - - - - - -
31/09:30pm 21.5 SE 1 3 1017.6 - - - - - - - - -
31/09:00pm 21.4 SE 1 3 1017.5 - - - - - - - - -
31/08:30pm 21.5 SE 1 3 1017.3 - - - - - - - - -
31/08:00pm 21.4 ESE 1 3 1017.3 - - - - - - - - -
31/07:30pm 21.5 SE 1 3 1017.3 - - - - - - - - -
31/07:00pm 21.4 SE 1 3 1017.1 - - - - - - - - -
31/06:30pm 21.4 CALM 0 4 1016.8 - - - - - - - - -
31/06:00pm 21.3 SE 1 3 1016.6 - - - - - - - - -
31/05:30pm 21.3 SE 12 16 1016.6 - - - - - - - - -
31/05:00pm 21.3 SE 13 15 1016.2 - - - - - - - - -
31/04:30pm 21.3 SSE 13 16 1016.0 - - - - - - - - -
31/04:00pm 21.4 SSE 12 16 1015.6 - - - - - - - - -
31/03:30pm 21.3 SSE 12 14 1015.5 - - - - - - - - -
31/03:00pm 21.4 S 12 15 1015.3 - - - - - - - - -
31/02:30pm 21.3 SSE 11 14 1015.7 - - - - - - - - -
31/02:00pm 21.2 SSE 12 16 1015.5 - - - - - - - - -
31/01:30pm 21.2 SSE 11 13 1015.9 - - - - - - - - -
31/01:00pm 21.1 SSE 12 14 1016.3 - - - - - - - - -
31/12:30pm 21.1 S 11 14 1016.5 - - - - - - - - -
31/12:00pm 21.1 SSE 12 15 1016.8 - - - - - - - - -
31/11:30am 21.2 SSE 10 13 1017.3 - - - - - - - - -
31/11:00am 21.2 SSE 12 14 1017.6 - - - - - - - - -
31/10:30am 21.3 SSE 11 14 1017.7 - - - - - - - - -
31/10:00am 21.0 SSE 12 15 1018.0 - - - - - - - - -
31/09:30am 21.1 SSE 13 17 1018.3 - - - - - - - - -
31/09:00am 21.0 SSE 12 14 1018.3 - - - - - - - - -
31/08:30am 21.0 SSE 12 14 1018.3 - - - - - - - - -
31/08:00am 20.8 SSE 12 17 1018.1 - - - - - - - - -
31/07:30am 20.9 S 12 16 1017.7 - - - - - - - - -
31/07:00am 20.7 SSE 11 14 1017.6 - - - - - - - - -
31/06:30am 20.6 SSE 13 16 1017.3 - - - - - - - - -
31/06:00am 20.7 SSE 15 19 1017.1 - - - - - - - - -
31/05:30am 20.7 SSE 13 17 1016.6 - - - - - - - - -
31/05:00am 20.5 SSE 12 16 1016.3 - - - - - - - - -
31/04:30am 20.8 SE 13 16 1016.0 - - - - - - - - -
31/04:00am 20.7 SSE 12 15 1016.0 - - - - - - - - -
31/03:30am 20.8 SSE 12 15 1016.0 - - - - - - - - -
31/03:00am 20.9 SSE 13 16 1016.0 - - - - - - - - -
31/02:30am 21.0 SSE 12 16 1016.3 - - - - - - - - -
31/02:00am 21.1 SSE 9 13 1016.6 - - - - - - - - -
31/01:30am 21.0 S 1 11 1017.0 - - - - - - - - -
31/01:00am 21.1 SSE 1 4 1017.2 - - - - - - - - -
31/12:30am 21.2 CALM 0 3 1017.5 - - - - - - - - -
31/12:00am 21.2 CALM 0 2 1017.9 - - - - - - - - -
 
Date/Time
EST
Temp

°C
Wind Pressure Rain
since 9am
mm
Weather Cloud Vis
km
Sea
Height
m
Swell
Dir
 
Speed
knots
Gust
knots
hPa Trend Height
m
Period
s
Dir
30/11:30pm 21.2 SE 1 3 1018.0 - - - - - - - - -
30/11:00pm 21.4 CALM 0 2 1018.3 - - - - - - - - -
30/10:30pm 21.4 SE 1 3 1018.2 - - - - - - - - -
30/10:00pm 21.3 CALM 0 4 1018.3 - - - - - - - - -
30/09:30pm 21.4 CALM 0 6 1018.3 - - - - - - - - -
30/09:00pm 21.5 SE 1 3 1018.4 - - - - - - - - -
30/08:30pm 21.4 SE 1 3 1018.5 - - - - - - - - -
30/08:00pm 21.5 SSE 1 3 1018.0 - - - - - - - - -
30/07:30pm 21.4 SE 1 3 1017.8 - - - - - - - - -
30/07:00pm 21.3 SE 1 3 1017.5 - - - - - - - - -
30/06:30pm 21.4 SE 1 3 1017.2 - - - - - - - - -
30/06:00pm 21.4 ESE 1 3 1017.0 - - - - - - - - -
30/05:30pm 21.4 SE 12 15 1016.7 - - - - - - - - -
30/05:00pm 21.5 SE 12 16 1016.5 - - - - - - - - -
30/04:30pm 21.6 SE 14 17 1016.3 - - - - - - - - -
30/04:00pm 21.6 SE 15 17 1015.9 - - - - - - - - -
30/03:30pm 21.7 SSE 14 17 1015.9 - - - - - - - - -
30/03:00pm 21.6 SSE 15 17 1016.0 - - - - - - - - -
30/02:30pm 21.6 SE 15 18 1015.8 - - - - - - - - -
30/02:00pm 21.8 SSE 14 16 1016.0 - - - - - - - - -
30/01:30pm 21.8 SSE 12 15 1016.4 - - - - - - - - -
30/01:00pm 21.8 SSE 13 15 1017.0 - - - - - - - - -
30/12:30pm 21.6 SSE 15 17 1016.6 - - - - - - - - -
30/12:00pm 21.6 SE 16 19 1016.7 - - - - - - - - -
30/11:30am 21.5 SSE 16 18 1017.1 - - - - - - - - -
30/11:00am 21.6 SSE 18 20 1017.5 - - - - - - - - -
30/10:30am 21.5 SSE 19 22 1017.6 - - - - - - - - -
30/10:00am 21.4 SE 18 21 1018.2 - - - - - - - - -
30/09:30am 21.5 SE 19 22 1018.6 - - - - - - - - -
30/09:00am 21.7 SE 18 22 1018.6 - - - - - - - - -
30/08:30am 21.5 SE 17 20 1018.7 - - - - - - - - -
30/08:00am 21.4 SE 17 20 1018.6 - - - - - - - - -
30/07:30am 21.5 SE 16 19 1018.7 - - - - - - - - -
30/07:00am 21.3 SE 17 19 1018.4 - - - - - - - - -

Other Formats:

Comma delimited format used in spreadsheet applications
http://www.bom.gov.au/fwo/IDQ60701/IDQ60701.94393.axf

JavaScript Object Notation format (JSON) in row-major order
http://www.bom.gov.au/fwo/IDQ60701/IDQ60701.94393.json